sensor_id;sensor_type;location;lat;lon;timestamp;P1;durP1;ratioP1;P2;durP2;ratioP2
12780;SDS011;6454;43.304;24.344;2022-07-29T00:00:18;7.55;;;6.95;;
12780;SDS011;6454;43.304;24.344;2022-07-29T00:02:45;7.32;;;6.50;;
12780;SDS011;6454;43.304;24.344;2022-07-29T00:05:12;7.40;;;6.80;;
12780;SDS011;6454;43.304;24.344;2022-07-29T00:07:39;7.35;;;6.65;;
12780;SDS011;6454;43.304;24.344;2022-07-29T00:10:08;8.07;;;7.28;;
12780;SDS011;6454;43.304;24.344;2022-07-29T00:12:35;7.60;;;6.90;;
12780;SDS011;6454;43.304;24.344;2022-07-29T00:15:02;7.55;;;6.80;;
12780;SDS011;6454;43.304;24.344;2022-07-29T00:17:30;8.10;;;7.40;;
12780;SDS011;6454;43.304;24.344;2022-07-29T00:19:59;7.70;;;7.00;;
12780;SDS011;6454;43.304;24.344;2022-07-29T00:22:26;7.85;;;7.10;;
12780;SDS011;6454;43.304;24.344;2022-07-29T00:24:53;8.32;;;7.53;;
12780;SDS011;6454;43.304;24.344;2022-07-29T00:27:21;7.63;;;7.03;;
12780;SDS011;6454;43.304;24.344;2022-07-29T00:29:48;7.22;;;6.68;;
12780;SDS011;6454;43.304;24.344;2022-07-29T00:32:15;7.93;;;7.13;;
12780;SDS011;6454;43.304;24.344;2022-07-29T00:34:42;9.23;;;6.97;;
12780;SDS011;6454;43.304;24.344;2022-07-29T00:37:27;8.95;;;7.15;;
12780;SDS011;6454;43.304;24.344;2022-07-29T00:39:53;7.95;;;7.25;;
12780;SDS011;6454;43.304;24.344;2022-07-29T00:42:22;7.60;;;7.00;;
12780;SDS011;6454;43.304;24.344;2022-07-29T00:44:49;8.32;;;7.28;;
12780;SDS011;6454;43.304;24.344;2022-07-29T00:47:16;8.15;;;7.43;;
12780;SDS011;6454;43.304;24.344;2022-07-29T00:49:43;8.20;;;7.40;;
12780;SDS011;6454;43.304;24.344;2022-07-29T00:52:10;7.45;;;6.78;;
12780;SDS011;6454;43.304;24.344;2022-07-29T00:54:38;7.38;;;6.75;;
12780;SDS011;6454;43.304;24.344;2022-07-29T00:57:06;7.38;;;6.72;;
12780;SDS011;6454;43.304;24.344;2022-07-29T00:59:35;11.90;;;7.47;;
12780;SDS011;6454;43.304;24.344;2022-07-29T01:02:02;7.82;;;7.13;;
12780;SDS011;6454;43.304;24.344;2022-07-29T01:04:29;7.50;;;6.85;;
12780;SDS011;6454;43.304;24.344;2022-07-29T01:06:57;8.05;;;7.25;;
12780;SDS011;6454;43.304;24.344;2022-07-29T01:09:25;8.38;;;7.57;;
12780;SDS011;6454;43.304;24.344;2022-07-29T01:11:53;7.07;;;6.47;;
12780;SDS011;6454;43.304;24.344;2022-07-29T01:14:20;8.65;;;7.20;;
12780;SDS011;6454;43.304;24.344;2022-07-29T01:16:51;7.63;;;7.03;;
12780;SDS011;6454;43.304;24.344;2022-07-29T01:19:27;7.72;;;7.03;;
12780;SDS011;6454;43.304;24.344;2022-07-29T01:22:22;7.88;;;7.10;;
12780;SDS011;6454;43.304;24.344;2022-07-29T01:25:05;7.63;;;6.40;;
12780;SDS011;6454;43.304;24.344;2022-07-29T01:27:50;7.93;;;7.20;;
12780;SDS011;6454;43.304;24.344;2022-07-29T01:30:28;7.30;;;6.68;;
12780;SDS011;6454;43.304;24.344;2022-07-29T01:32:58;7.22;;;6.70;;
12780;SDS011;6454;43.304;24.344;2022-07-29T01:35:28;8.23;;;7.43;;
12780;SDS011;6454;43.304;24.344;2022-07-29T01:38:01;8.07;;;7.10;;
12780;SDS011;6454;43.304;24.344;2022-07-29T01:40:35;7.93;;;7.22;;
12780;SDS011;6454;43.304;24.344;2022-07-29T01:43:09;7.53;;;6.93;;
12780;SDS011;6454;43.304;24.344;2022-07-29T01:45:40;7.45;;;6.78;;
12780;SDS011;6454;43.304;24.344;2022-07-29T01:48:12;7.32;;;6.70;;
12780;SDS011;6454;43.304;24.344;2022-07-29T01:50:44;7.07;;;6.47;;
12780;SDS011;6454;43.304;24.344;2022-07-29T01:53:14;7.32;;;6.63;;
12780;SDS011;6454;43.304;24.344;2022-07-29T01:55:48;7.43;;;6.82;;
12780;SDS011;6454;43.304;24.344;2022-07-29T01:58:17;7.57;;;6.88;;
12780;SDS011;6454;43.304;24.344;2022-07-29T02:00:47;7.85;;;7.20;;
12780;SDS011;6454;43.304;24.344;2022-07-29T02:03:15;8.05;;;7.30;;
12780;SDS011;6454;43.304;24.344;2022-07-29T02:05:45;8.35;;;7.60;;
12780;SDS011;6454;43.304;24.344;2022-07-29T02:08:14;7.55;;;6.93;;
12780;SDS011;6454;43.304;24.344;2022-07-29T02:10:43;8.38;;;7.68;;
12780;SDS011;6454;43.304;24.344;2022-07-29T02:13:12;8.20;;;7.40;;
12780;SDS011;6454;43.304;24.344;2022-07-29T02:15:39;9.00;;;7.65;;
12780;SDS011;6454;43.304;24.344;2022-07-29T02:18:11;7.88;;;7.13;;
12780;SDS011;6454;43.304;24.344;2022-07-29T02:20:42;8.32;;;7.55;;
12780;SDS011;6454;43.304;24.344;2022-07-29T02:23:13;7.72;;;7.03;;
12780;SDS011;6454;43.304;24.344;2022-07-29T02:25:44;8.40;;;7.70;;
12780;SDS011;6454;43.304;24.344;2022-07-29T02:28:14;7.43;;;6.80;;
12780;SDS011;6454;43.304;24.344;2022-07-29T02:30:43;10.57;;;7.60;;
12780;SDS011;6454;43.304;24.344;2022-07-29T02:33:14;7.72;;;7.03;;
12780;SDS011;6454;43.304;24.344;2022-07-29T02:35:44;8.23;;;7.43;;
12780;SDS011;6454;43.304;24.344;2022-07-29T02:38:13;7.53;;;6.88;;
12780;SDS011;6454;43.304;24.344;2022-07-29T02:41:00;8.68;;;7.53;;
12780;SDS011;6454;43.304;24.344;2022-07-29T02:43:29;7.97;;;7.28;;
12780;SDS011;6454;43.304;24.344;2022-07-29T02:45:59;9.23;;;7.78;;
12780;SDS011;6454;43.304;24.344;2022-07-29T02:48:32;9.23;;;7.30;;
12780;SDS011;6454;43.304;24.344;2022-07-29T02:51:05;8.13;;;7.53;;
12780;SDS011;6454;43.304;24.344;2022-07-29T02:53:37;7.85;;;7.10;;
12780;SDS011;6454;43.304;24.344;2022-07-29T02:56:07;7.70;;;7.10;;
12780;SDS011;6454;43.304;24.344;2022-07-29T02:58:40;7.47;;;6.80;;
12780;SDS011;6454;43.304;24.344;2022-07-29T03:01:11;7.80;;;7.10;;
12780;SDS011;6454;43.304;24.344;2022-07-29T03:03:44;7.57;;;6.82;;
12780;SDS011;6454;43.304;24.344;2022-07-29T03:06:13;7.40;;;6.80;;
12780;SDS011;6454;43.304;24.344;2022-07-29T03:08:41;7.60;;;6.90;;
12780;SDS011;6454;43.304;24.344;2022-07-29T03:11:10;7.93;;;7.13;;
12780;SDS011;6454;43.304;24.344;2022-07-29T03:13:38;8.10;;;7.43;;
12780;SDS011;6454;43.304;24.344;2022-07-29T03:16:06;8.32;;;7.63;;
12780;SDS011;6454;43.304;24.344;2022-07-29T03:18:35;8.32;;;7.03;;
12780;SDS011;6454;43.304;24.344;2022-07-29T03:21:05;8.27;;;7.07;;
12780;SDS011;6454;43.304;24.344;2022-07-29T03:23:32;8.23;;;7.53;;
12780;SDS011;6454;43.304;24.344;2022-07-29T03:25:59;8.30;;;7.50;;
12780;SDS011;6454;43.304;24.344;2022-07-29T03:28:26;7.40;;;6.70;;
12780;SDS011;6454;43.304;24.344;2022-07-29T03:30:53;7.90;;;7.20;;
12780;SDS011;6454;43.304;24.344;2022-07-29T03:33:20;7.85;;;7.10;;
12780;SDS011;6454;43.304;24.344;2022-07-29T03:35:47;7.85;;;7.18;;
12780;SDS011;6454;43.304;24.344;2022-07-29T03:38:15;6.97;;;6.38;;
12780;SDS011;6454;43.304;24.344;2022-07-29T03:40:44;7.55;;;6.85;;
12780;SDS011;6454;43.304;24.344;2022-07-29T03:43:16;7.15;;;6.47;;
12780;SDS011;6454;43.304;24.344;2022-07-29T03:45:45;8.13;;;6.57;;
12780;SDS011;6454;43.304;24.344;2022-07-29T03:48:16;7.53;;;6.80;;
12780;SDS011;6454;43.304;24.344;2022-07-29T03:50:45;8.07;;;6.50;;
12780;SDS011;6454;43.304;24.344;2022-07-29T03:53:12;9.35;;;6.80;;
12780;SDS011;6454;43.304;24.344;2022-07-29T03:55:43;8.30;;;6.57;;
12780;SDS011;6454;43.304;24.344;2022-07-29T03:58:12;7.43;;;5.97;;
12780;SDS011;6454;43.304;24.344;2022-07-29T04:00:39;8.90;;;6.35;;
12780;SDS011;6454;43.304;24.344;2022-07-29T04:03:07;7.63;;;6.32;;
12780;SDS011;6454;43.304;24.344;2022-07-29T04:05:35;6.95;;;6.20;;
12780;SDS011;6454;43.304;24.344;2022-07-29T04:08:02;6.55;;;5.95;;
12780;SDS011;6454;43.304;24.344;2022-07-29T04:10:29;6.55;;;5.95;;
12780;SDS011;6454;43.304;24.344;2022-07-29T04:12:57;7.13;;;5.90;;
12780;SDS011;6454;43.304;24.344;2022-07-29T04:15:25;6.88;;;6.03;;
12780;SDS011;6454;43.304;24.344;2022-07-29T04:17:53;7.82;;;6.50;;
12780;SDS011;6454;43.304;24.344;2022-07-29T04:20:20;6.40;;;5.80;;
12780;SDS011;6454;43.304;24.344;2022-07-29T04:22:47;8.27;;;6.30;;
12780;SDS011;6454;43.304;24.344;2022-07-29T04:25:14;6.00;;;5.50;;
12780;SDS011;6454;43.304;24.344;2022-07-29T04:27:41;6.60;;;6.00;;
12780;SDS011;6454;43.304;24.344;2022-07-29T04:30:23;6.75;;;5.50;;
12780;SDS011;6454;43.304;24.344;2022-07-29T04:32:50;6.05;;;5.50;;
12780;SDS011;6454;43.304;24.344;2022-07-29T04:35:17;8.02;;;6.03;;
12780;SDS011;6454;43.304;24.344;2022-07-29T04:37:44;5.43;;;4.95;;
12780;SDS011;6454;43.304;24.344;2022-07-29T04:40:11;6.45;;;5.28;;
12780;SDS011;6454;43.304;24.344;2022-07-29T04:42:38;6.38;;;5.85;;
12780;SDS011;6454;43.304;24.344;2022-07-29T04:45:05;7.15;;;6.45;;
12780;SDS011;6454;43.304;24.344;2022-07-29T04:47:34;7.70;;;7.00;;
12780;SDS011;6454;43.304;24.344;2022-07-29T04:50:01;7.82;;;7.03;;
12780;SDS011;6454;43.304;24.344;2022-07-29T04:52:28;7.55;;;6.80;;
12780;SDS011;6454;43.304;24.344;2022-07-29T04:54:55;7.82;;;7.05;;
12780;SDS011;6454;43.304;24.344;2022-07-29T04:57:22;8.30;;;7.25;;
12780;SDS011;6454;43.304;24.344;2022-07-29T04:59:49;9.40;;;7.05;;
12780;SDS011;6454;43.304;24.344;2022-07-29T05:02:16;7.88;;;7.07;;
12780;SDS011;6454;43.304;24.344;2022-07-29T05:04:44;6.60;;;5.95;;
12780;SDS011;6454;43.304;24.344;2022-07-29T05:07:11;8.18;;;5.75;;
12780;SDS011;6454;43.304;24.344;2022-07-29T05:09:39;6.03;;;5.53;;
12780;SDS011;6454;43.304;24.344;2022-07-29T05:12:06;8.25;;;5.63;;
12780;SDS011;6454;43.304;24.344;2022-07-29T05:14:33;5.97;;;5.45;;
12780;SDS011;6454;43.304;24.344;2022-07-29T05:17:00;6.10;;;4.85;;
12780;SDS011;6454;43.304;24.344;2022-07-29T05:19:27;5.63;;;4.50;;
12780;SDS011;6454;43.304;24.344;2022-07-29T05:21:55;4.78;;;4.28;;
12780;SDS011;6454;43.304;24.344;2022-07-29T05:24:22;5.20;;;4.70;;
12780;SDS011;6454;43.304;24.344;2022-07-29T05:26:49;5.53;;;5.05;;
12780;SDS011;6454;43.304;24.344;2022-07-29T05:29:16;5.57;;;5.10;;
12780;SDS011;6454;43.304;24.344;2022-07-29T05:31:42;5.30;;;4.82;;
12780;SDS011;6454;43.304;24.344;2022-07-29T05:34:09;5.22;;;4.72;;
12780;SDS011;6454;43.304;24.344;2022-07-29T05:36:36;8.65;;;5.40;;
12780;SDS011;6454;43.304;24.344;2022-07-29T05:39:04;5.72;;;5.00;;
12780;SDS011;6454;43.304;24.344;2022-07-29T05:41:31;5.60;;;5.10;;
12780;SDS011;6454;43.304;24.344;2022-07-29T05:43:58;5.18;;;4.50;;
12780;SDS011;6454;43.304;24.344;2022-07-29T05:46:25;5.07;;;4.68;;
12780;SDS011;6454;43.304;24.344;2022-07-29T05:48:52;5.90;;;5.05;;
12780;SDS011;6454;43.304;24.344;2022-07-29T05:51:19;5.70;;;4.75;;
12780;SDS011;6454;43.304;24.344;2022-07-29T05:53:46;5.18;;;4.68;;
12780;SDS011;6454;43.304;24.344;2022-07-29T05:56:14;5.32;;;4.82;;
12780;SDS011;6454;43.304;24.344;2022-07-29T05:58:41;5.57;;;5.03;;
12780;SDS011;6454;43.304;24.344;2022-07-29T06:01:08;7.40;;;5.20;;
12780;SDS011;6454;43.304;24.344;2022-07-29T06:03:35;5.40;;;4.88;;
12780;SDS011;6454;43.304;24.344;2022-07-29T06:06:03;5.35;;;4.95;;
12780;SDS011;6454;43.304;24.344;2022-07-29T06:08:31;9.52;;;5.45;;
12780;SDS011;6454;43.304;24.344;2022-07-29T06:10:58;8.02;;;4.80;;
12780;SDS011;6454;43.304;24.344;2022-07-29T06:13:27;5.68;;;4.90;;
12780;SDS011;6454;43.304;24.344;2022-07-29T06:15:54;5.35;;;4.85;;
12780;SDS011;6454;43.304;24.344;2022-07-29T06:18:21;8.30;;;5.18;;
12780;SDS011;6454;43.304;24.344;2022-07-29T06:20:49;4.97;;;4.57;;
12780;SDS011;6454;43.304;24.344;2022-07-29T06:23:16;7.47;;;5.10;;
12780;SDS011;6454;43.304;24.344;2022-07-29T06:25:42;5.65;;;5.10;;
12780;SDS011;6454;43.304;24.344;2022-07-29T06:28:13;5.68;;;4.93;;
12780;SDS011;6454;43.304;24.344;2022-07-29T06:30:42;7.40;;;4.97;;
12780;SDS011;6454;43.304;24.344;2022-07-29T06:33:08;7.75;;;4.75;;
12780;SDS011;6454;43.304;24.344;2022-07-29T06:35:35;5.63;;;5.03;;
12780;SDS011;6454;43.304;24.344;2022-07-29T06:38:04;6.35;;;4.97;;
12780;SDS011;6454;43.304;24.344;2022-07-29T06:40:31;5.72;;;4.63;;
12780;SDS011;6454;43.304;24.344;2022-07-29T06:43:15;5.60;;;4.95;;
12780;SDS011;6454;43.304;24.344;2022-07-29T06:45:43;5.03;;;4.60;;
12780;SDS011;6454;43.304;24.344;2022-07-29T06:48:10;6.45;;;4.57;;
12780;SDS011;6454;43.304;24.344;2022-07-29T06:50:37;5.32;;;4.82;;
12780;SDS011;6454;43.304;24.344;2022-07-29T06:53:04;5.18;;;4.60;;
12780;SDS011;6454;43.304;24.344;2022-07-29T06:55:31;5.07;;;4.57;;
12780;SDS011;6454;43.304;24.344;2022-07-29T06:57:58;6.55;;;4.95;;
12780;SDS011;6454;43.304;24.344;2022-07-29T07:00:25;8.02;;;4.90;;
12780;SDS011;6454;43.304;24.344;2022-07-29T07:02:53;5.05;;;4.65;;
12780;SDS011;6454;43.304;24.344;2022-07-29T07:05:20;4.80;;;4.40;;
12780;SDS011;6454;43.304;24.344;2022-07-29T07:07:47;5.82;;;4.60;;
12780;SDS011;6454;43.304;24.344;2022-07-29T07:10:14;5.22;;;4.72;;
12780;SDS011;6454;43.304;24.344;2022-07-29T07:12:41;5.22;;;4.70;;
12780;SDS011;6454;43.304;24.344;2022-07-29T07:15:08;5.45;;;4.85;;
12780;SDS011;6454;43.304;24.344;2022-07-29T07:17:36;5.88;;;5.25;;
12780;SDS011;6454;43.304;24.344;2022-07-29T07:20:05;7.05;;;5.07;;
12780;SDS011;6454;43.304;24.344;2022-07-29T07:22:33;6.38;;;5.00;;
12780;SDS011;6454;43.304;24.344;2022-07-29T07:25:00;5.30;;;4.90;;
12780;SDS011;6454;43.304;24.344;2022-07-29T07:27:27;6.20;;;5.28;;
12780;SDS011;6454;43.304;24.344;2022-07-29T07:29:54;6.35;;;5.47;;
12780;SDS011;6454;43.304;24.344;2022-07-29T07:32:21;7.97;;;4.90;;
12780;SDS011;6454;43.304;24.344;2022-07-29T07:34:48;8.05;;;5.45;;
12780;SDS011;6454;43.304;24.344;2022-07-29T07:37:17;5.43;;;4.93;;
12780;SDS011;6454;43.304;24.344;2022-07-29T07:39:44;5.43;;;4.93;;
12780;SDS011;6454;43.304;24.344;2022-07-29T07:42:11;8.05;;;5.30;;
12780;SDS011;6454;43.304;24.344;2022-07-29T07:44:38;5.82;;;4.93;;
12780;SDS011;6454;43.304;24.344;2022-07-29T07:47:05;6.15;;;5.00;;
12780;SDS011;6454;43.304;24.344;2022-07-29T07:49:32;8.80;;;5.47;;
12780;SDS011;6454;43.304;24.344;2022-07-29T07:51:59;7.38;;;5.60;;
12780;SDS011;6454;43.304;24.344;2022-07-29T07:54:27;6.90;;;5.30;;
12780;SDS011;6454;43.304;24.344;2022-07-29T07:56:54;8.70;;;6.22;;
12780;SDS011;6454;43.304;24.344;2022-07-29T07:59:21;6.75;;;6.05;;
12780;SDS011;6454;43.304;24.344;2022-07-29T08:01:48;5.78;;;5.28;;
12780;SDS011;6454;43.304;24.344;2022-07-29T08:04:15;6.15;;;4.93;;
12780;SDS011;6454;43.304;24.344;2022-07-29T08:06:42;6.65;;;5.53;;
12780;SDS011;6454;43.304;24.344;2022-07-29T08:09:09;6.05;;;5.43;;
12780;SDS011;6454;43.304;24.344;2022-07-29T08:11:37;7.65;;;5.38;;
12780;SDS011;6454;43.304;24.344;2022-07-29T08:14:04;6.40;;;5.90;;
12780;SDS011;6454;43.304;24.344;2022-07-29T08:16:31;7.20;;;5.78;;
12780;SDS011;6454;43.304;24.344;2022-07-29T08:18:58;5.82;;;5.03;;
12780;SDS011;6454;43.304;24.344;2022-07-29T08:21:24;6.13;;;5.60;;
12780;SDS011;6454;43.304;24.344;2022-07-29T08:23:51;6.40;;;5.47;;
12780;SDS011;6454;43.304;24.344;2022-07-29T08:26:40;6.00;;;5.50;;
12780;SDS011;6454;43.304;24.344;2022-07-29T08:29:07;8.90;;;5.50;;
12780;SDS011;6454;43.304;24.344;2022-07-29T08:31:34;6.93;;;5.63;;
12780;SDS011;6454;43.304;24.344;2022-07-29T08:34:01;7.78;;;5.63;;
12780;SDS011;6454;43.304;24.344;2022-07-29T08:36:28;5.85;;;5.25;;
12780;SDS011;6454;43.304;24.344;2022-07-29T08:38:55;6.50;;;5.82;;
12780;SDS011;6454;43.304;24.344;2022-07-29T08:41:22;5.82;;;5.32;;
12780;SDS011;6454;43.304;24.344;2022-07-29T08:43:51;6.00;;;5.35;;
12780;SDS011;6454;43.304;24.344;2022-07-29T08:46:18;6.20;;;5.70;;
12780;SDS011;6454;43.304;24.344;2022-07-29T08:48:45;5.57;;;4.97;;
12780;SDS011;6454;43.304;24.344;2022-07-29T08:51:13;6.00;;;5.40;;
12780;SDS011;6454;43.304;24.344;2022-07-29T08:53:42;5.55;;;5.07;;
12780;SDS011;6454;43.304;24.344;2022-07-29T08:56:11;6.13;;;5.53;;
12780;SDS011;6454;43.304;24.344;2022-07-29T08:58:38;6.30;;;5.70;;
12780;SDS011;6454;43.304;24.344;2022-07-29T09:01:07;6.57;;;5.88;;
12780;SDS011;6454;43.304;24.344;2022-07-29T09:03:37;5.85;;;5.35;;
12780;SDS011;6454;43.304;24.344;2022-07-29T09:06:05;6.72;;;5.05;;
12780;SDS011;6454;43.304;24.344;2022-07-29T09:08:32;6.47;;;4.97;;
12780;SDS011;6454;43.304;24.344;2022-07-29T09:11:00;8.20;;;5.20;;
12780;SDS011;6454;43.304;24.344;2022-07-29T09:13:28;5.82;;;5.32;;
12780;SDS011;6454;43.304;24.344;2022-07-29T09:15:55;5.85;;;5.32;;
12780;SDS011;6454;43.304;24.344;2022-07-29T09:18:34;6.15;;;5.63;;
12780;SDS011;6454;43.304;24.344;2022-07-29T09:21:02;9.07;;;6.18;;
12780;SDS011;6454;43.304;24.344;2022-07-29T09:24:04;8.57;;;6.30;;
12780;SDS011;6454;43.304;24.344;2022-07-29T09:26:34;6.35;;;5.80;;
12780;SDS011;6454;43.304;24.344;2022-07-29T09:29:07;6.57;;;5.97;;
12780;SDS011;6454;43.304;24.344;2022-07-29T09:31:37;6.22;;;5.63;;
12780;SDS011;6454;43.304;24.344;2022-07-29T09:34:07;7.40;;;5.82;;
12780;SDS011;6454;43.304;24.344;2022-07-29T09:36:41;6.65;;;6.03;;
12780;SDS011;6454;43.304;24.344;2022-07-29T09:39:10;7.10;;;6.43;;
12780;SDS011;6454;43.304;24.344;2022-07-29T09:41:46;6.40;;;5.80;;
12780;SDS011;6454;43.304;24.344;2022-07-29T09:44:15;6.18;;;5.68;;
12780;SDS011;6454;43.304;24.344;2022-07-29T09:46:53;6.63;;;5.93;;
12780;SDS011;6454;43.304;24.344;2022-07-29T09:49:29;6.72;;;6.03;;
12780;SDS011;6454;43.304;24.344;2022-07-29T09:51:59;6.15;;;5.65;;
12780;SDS011;6454;43.304;24.344;2022-07-29T09:54:29;6.47;;;5.88;;
12780;SDS011;6454;43.304;24.344;2022-07-29T09:57:01;6.43;;;5.70;;
12780;SDS011;6454;43.304;24.344;2022-07-29T09:59:29;6.70;;;5.78;;
12780;SDS011;6454;43.304;24.344;2022-07-29T10:01:56;6.65;;;5.85;;
12780;SDS011;6454;43.304;24.344;2022-07-29T10:04:23;6.40;;;5.82;;
12780;SDS011;6454;43.304;24.344;2022-07-29T10:06:58;6.55;;;5.95;;
12780;SDS011;6454;43.304;24.344;2022-07-29T10:09:26;7.68;;;5.65;;
12780;SDS011;6454;43.304;24.344;2022-07-29T10:12:03;6.25;;;5.60;;
12780;SDS011;6454;43.304;24.344;2022-07-29T10:14:32;8.23;;;5.82;;
12780;SDS011;6454;43.304;24.344;2022-07-29T10:16:59;8.43;;;6.25;;
12780;SDS011;6454;43.304;24.344;2022-07-29T10:19:28;6.55;;;5.68;;
12780;SDS011;6454;43.304;24.344;2022-07-29T10:21:56;5.95;;;5.38;;
12780;SDS011;6454;43.304;24.344;2022-07-29T10:24:25;6.45;;;5.63;;
12780;SDS011;6454;43.304;24.344;2022-07-29T10:26:53;6.00;;;5.50;;
12780;SDS011;6454;43.304;24.344;2022-07-29T10:29:22;6.18;;;5.57;;
12780;SDS011;6454;43.304;24.344;2022-07-29T10:31:57;6.60;;;5.45;;
12780;SDS011;6454;43.304;24.344;2022-07-29T10:34:50;6.72;;;5.50;;
12780;SDS011;6454;43.304;24.344;2022-07-29T10:37:59;6.32;;;5.72;;
12780;SDS011;6454;43.304;24.344;2022-07-29T10:40:36;6.93;;;6.07;;
12780;SDS011;6454;43.304;24.344;2022-07-29T10:43:28;6.18;;;5.57;;
12780;SDS011;6454;43.304;24.344;2022-07-29T10:45:58;7.00;;;5.60;;
12780;SDS011;6454;43.304;24.344;2022-07-29T10:48:27;6.85;;;5.50;;
12780;SDS011;6454;43.304;24.344;2022-07-29T10:50:54;6.45;;;5.10;;
12780;SDS011;6454;43.304;24.344;2022-07-29T10:53:45;5.82;;;5.32;;
12780;SDS011;6454;43.304;24.344;2022-07-29T10:56:22;7.57;;;5.70;;
12780;SDS011;6454;43.304;24.344;2022-07-29T11:01:53;6.75;;;5.43;;
12780;SDS011;6454;43.304;24.344;2022-07-29T11:07:26;6.38;;;5.88;;
12780;SDS011;6454;43.304;24.344;2022-07-29T11:12:47;6.13;;;5.40;;
12780;SDS011;6454;43.304;24.344;2022-07-29T11:15:16;5.75;;;5.25;;
12780;SDS011;6454;43.304;24.344;2022-07-29T11:18:07;6.20;;;5.63;;
12780;SDS011;6454;43.304;24.344;2022-07-29T11:20:35;6.65;;;6.05;;
12780;SDS011;6454;43.304;24.344;2022-07-29T11:23:17;7.75;;;5.35;;
12780;SDS011;6454;43.304;24.344;2022-07-29T11:25:47;10.32;;;5.45;;
12780;SDS011;6454;43.304;24.344;2022-07-29T11:28:47;7.55;;;5.85;;
12780;SDS011;6454;43.304;24.344;2022-07-29T11:31:16;6.60;;;5.82;;
12780;SDS011;6454;43.304;24.344;2022-07-29T11:33:57;6.22;;;5.72;;
12780;SDS011;6454;43.304;24.344;2022-07-29T11:39:43;5.97;;;5.35;;
12780;SDS011;6454;43.304;24.344;2022-07-29T11:45:09;5.32;;;4.85;;
12780;SDS011;6454;43.304;24.344;2022-07-29T11:47:39;5.70;;;5.20;;
12780;SDS011;6454;43.304;24.344;2022-07-29T11:50:08;6.30;;;5.03;;
12780;SDS011;6454;43.304;24.344;2022-07-29T11:52:37;6.40;;;5.63;;
12780;SDS011;6454;43.304;24.344;2022-07-29T11:55:08;5.90;;;5.30;;
12780;SDS011;6454;43.304;24.344;2022-07-29T11:57:37;6.15;;;5.63;;
12780;SDS011;6454;43.304;24.344;2022-07-29T12:00:20;5.97;;;5.47;;
12780;SDS011;6454;43.304;24.344;2022-07-29T12:02:48;6.00;;;5.53;;
12780;SDS011;6454;43.304;24.344;2022-07-29T12:05:15;6.88;;;5.60;;
12780;SDS011;6454;43.304;24.344;2022-07-29T12:07:43;6.00;;;5.50;;
12780;SDS011;6454;43.304;24.344;2022-07-29T12:10:10;5.80;;;5.25;;
12780;SDS011;6454;43.304;24.344;2022-07-29T12:12:37;8.25;;;5.35;;
12780;SDS011;6454;43.304;24.344;2022-07-29T12:15:16;5.47;;;4.93;;
12780;SDS011;6454;43.304;24.344;2022-07-29T12:17:45;5.78;;;5.10;;
12780;SDS011;6454;43.304;24.344;2022-07-29T12:20:13;5.45;;;4.93;;
12780;SDS011;6454;43.304;24.344;2022-07-29T12:22:48;6.25;;;4.72;;
12780;SDS011;6454;43.304;24.344;2022-07-29T12:25:15;4.90;;;4.50;;
12780;SDS011;6454;43.304;24.344;2022-07-29T12:27:43;5.55;;;4.85;;
12780;SDS011;6454;43.304;24.344;2022-07-29T12:30:11;6.57;;;5.05;;
12780;SDS011;6454;43.304;24.344;2022-07-29T12:32:42;5.80;;;5.20;;
12780;SDS011;6454;43.304;24.344;2022-07-29T12:35:10;5.88;;;4.88;;
12780;SDS011;6454;43.304;24.344;2022-07-29T12:37:40;5.90;;;5.40;;
12780;SDS011;6454;43.304;24.344;2022-07-29T12:40:09;5.60;;;5.10;;
12780;SDS011;6454;43.304;24.344;2022-07-29T12:42:38;8.20;;;5.20;;
12780;SDS011;6454;43.304;24.344;2022-07-29T12:45:06;7.38;;;5.28;;
12780;SDS011;6454;43.304;24.344;2022-07-29T12:47:33;6.18;;;5.57;;
12780;SDS011;6454;43.304;24.344;2022-07-29T12:50:18;6.13;;;5.32;;
12780;SDS011;6454;43.304;24.344;2022-07-29T12:52:46;6.13;;;5.53;;
12780;SDS011;6454;43.304;24.344;2022-07-29T12:55:13;7.28;;;5.18;;
12780;SDS011;6454;43.304;24.344;2022-07-29T12:57:46;6.97;;;5.72;;
12780;SDS011;6454;43.304;24.344;2022-07-29T13:00:16;6.57;;;5.00;;
12780;SDS011;6454;43.304;24.344;2022-07-29T13:02:54;9.20;;;5.97;;
12780;SDS011;6454;43.304;24.344;2022-07-29T13:05:23;6.18;;;5.60;;
12780;SDS011;6454;43.304;24.344;2022-07-29T13:07:50;6.38;;;5.53;;
12780;SDS011;6454;43.304;24.344;2022-07-29T13:10:18;6.20;;;5.60;;
12780;SDS011;6454;43.304;24.344;2022-07-29T13:13:03;9.98;;;5.32;;
12780;SDS011;6454;43.304;24.344;2022-07-29T13:15:33;5.47;;;4.97;;
12780;SDS011;6454;43.304;24.344;2022-07-29T13:18:01;6.15;;;5.65;;
12780;SDS011;6454;43.304;24.344;2022-07-29T13:20:30;6.63;;;5.95;;
12780;SDS011;6454;43.304;24.344;2022-07-29T13:22:57;6.28;;;5.60;;
12780;SDS011;6454;43.304;24.344;2022-07-29T13:25:26;6.15;;;5.65;;
12780;SDS011;6454;43.304;24.344;2022-07-29T13:27:54;7.03;;;5.40;;
12780;SDS011;6454;43.304;24.344;2022-07-29T13:30:22;8.07;;;5.47;;
12780;SDS011;6454;43.304;24.344;2022-07-29T13:32:50;5.50;;;5.10;;
12780;SDS011;6454;43.304;24.344;2022-07-29T13:35:19;5.55;;;5.05;;
12780;SDS011;6454;43.304;24.344;2022-07-29T13:37:46;5.68;;;5.20;;
12780;SDS011;6454;43.304;24.344;2022-07-29T13:40:13;5.80;;;5.28;;
12780;SDS011;6454;43.304;24.344;2022-07-29T13:42:41;5.60;;;5.10;;
12780;SDS011;6454;43.304;24.344;2022-07-29T13:45:09;6.10;;;4.93;;
12780;SDS011;6454;43.304;24.344;2022-07-29T13:47:37;6.20;;;5.32;;
12780;SDS011;6454;43.304;24.344;2022-07-29T13:50:05;5.65;;;4.93;;
12780;SDS011;6454;43.304;24.344;2022-07-29T13:52:36;5.60;;;5.10;;
12780;SDS011;6454;43.304;24.344;2022-07-29T13:55:04;5.47;;;4.97;;
12780;SDS011;6454;43.304;24.344;2022-07-29T13:57:31;5.63;;;4.93;;
12780;SDS011;6454;43.304;24.344;2022-07-29T13:59:58;5.50;;;5.00;;
12780;SDS011;6454;43.304;24.344;2022-07-29T14:02:25;7.30;;;4.90;;
12780;SDS011;6454;43.304;24.344;2022-07-29T14:04:52;6.07;;;5.15;;
12780;SDS011;6454;43.304;24.344;2022-07-29T14:07:19;4.50;;;4.18;;
12780;SDS011;6454;43.304;24.344;2022-07-29T14:09:47;5.32;;;4.38;;
12780;SDS011;6454;43.304;24.344;2022-07-29T14:12:15;5.13;;;4.63;;
12780;SDS011;6454;43.304;24.344;2022-07-29T14:14:42;5.40;;;4.90;;
12780;SDS011;6454;43.304;24.344;2022-07-29T14:17:09;5.65;;;5.15;;
12780;SDS011;6454;43.304;24.344;2022-07-29T14:19:36;5.47;;;4.97;;
12780;SDS011;6454;43.304;24.344;2022-07-29T14:22:04;6.05;;;4.80;;
12780;SDS011;6454;43.304;24.344;2022-07-29T14:24:32;7.15;;;5.13;;
12780;SDS011;6454;43.304;24.344;2022-07-29T14:27:00;5.13;;;4.72;;
12780;SDS011;6454;43.304;24.344;2022-07-29T14:29:27;4.95;;;4.35;;
12780;SDS011;6454;43.304;24.344;2022-07-29T14:31:54;8.23;;;5.15;;
12780;SDS011;6454;43.304;24.344;2022-07-29T14:34:21;5.38;;;4.93;;
12780;SDS011;6454;43.304;24.344;2022-07-29T14:36:48;5.35;;;4.95;;
12780;SDS011;6454;43.304;24.344;2022-07-29T14:39:15;5.43;;;4.90;;
12780;SDS011;6454;43.304;24.344;2022-07-29T14:41:42;5.35;;;4.72;;
12780;SDS011;6454;43.304;24.344;2022-07-29T14:44:10;5.68;;;4.70;;
12780;SDS011;6454;43.304;24.344;2022-07-29T14:46:37;5.22;;;4.82;;
12780;SDS011;6454;43.304;24.344;2022-07-29T14:49:04;6.10;;;4.85;;
12780;SDS011;6454;43.304;24.344;2022-07-29T14:51:31;6.78;;;5.20;;
12780;SDS011;6454;43.304;24.344;2022-07-29T14:53:58;5.70;;;5.22;;
12780;SDS011;6454;43.304;24.344;2022-07-29T14:56:25;5.38;;;4.85;;
12780;SDS011;6454;43.304;24.344;2022-07-29T14:58:54;5.75;;;5.20;;
12780;SDS011;6454;43.304;24.344;2022-07-29T15:01:23;5.57;;;4.80;;
12780;SDS011;6454;43.304;24.344;2022-07-29T15:03:50;5.70;;;5.20;;
12780;SDS011;6454;43.304;24.344;2022-07-29T15:06:18;5.78;;;4.70;;
12780;SDS011;6454;43.304;24.344;2022-07-29T15:08:44;6.22;;;4.85;;
12780;SDS011;6454;43.304;24.344;2022-07-29T15:11:11;5.75;;;5.15;;
12780;SDS011;6454;43.304;24.344;2022-07-29T15:13:38;5.25;;;4.85;;
12780;SDS011;6454;43.304;24.344;2022-07-29T15:16:05;4.88;;;4.35;;